首页
METAR-TAF:

METAR-TAF

机场 :

广州白云国际机场

广州, 中华人民共和国

纬度: 23-10N, 经度: 113-20E, 海拔: 8米

当前天气观测

该预报发布于28分钟前的07:30 UTC
风速6节,风向西,在北转西北之间变化
温度 36°C
湿度 37%
气压 1008 hPa
能见度10公里或以上
散云层高于5300英尺

METAR: ZGGG 220730Z 28003MPS 170V340 9999 SCT053 36/19 Q1008 NOSIG

时间: 15:58 (07:58 UTC)

预报

该预报发布于4小时和52分钟前的03:06 UTC
预报有效从22日的 06点(UTC)到 23日的 06点(UTC)
风速6节,风向西南
能見度: 8000
散云层高于4000英尺
成为
从 23日的 01点(UTC)到 23日的 02点(UTC)
风速10节,风向北转东北

TAF: ZGGG 220306Z 2206/2306 22003MPS 8000 SCT040 TX37/2207Z TN26/2222Z BECMG 2301/2302 02005MPS

超过4000个机场的气象观测和天气预报(METAR&TAF报告)。

可查询的气象台以黄色和红色小点在地图上表示。

将鼠标移到小点上方,可查看气象台名称。

然后点击查看天气观测和预报。

如需切换地图:点击带黑十字的绿色按钮放大地图;点击带横线的绿色按钮缩小地图;或者点击绿色箭头查看邻近地区的地图。


METAR-TAF: